Terminal Aerodrome Forecast
Issued by NWS

Home | Current Version | Previous Version | Text Only | Print | Product List | Glossary On
Versions: 1 2 3 4 5 6 7 8 9 10 11 12 13
000
FTUS43 KLSX 311200 AAA
TAFSUS
TAF AMD
KSUS 311236Z 3113/0112 33013G20KT P6SM OVC030
     FM311400 34018G28KT P6SM SCT050
     FM010000 34013KT P6SM SKC
     FM010600 35004KT P6SM SKC=

USA.gov is the U.S. government's official web portal to all federal, state and local government web resources and services.